Time;durP1;ratioP1;P1;durP2;ratioP2;P2;SDS_P1;SDS_P2;PMS_P1;PMS_P2;Temp;Humidity;BMP_temperature;BMP_pressure;BME280_temperature;BME280_humidity;BME280_pressure;Samples;Min_cycle;Max_cycle;Signal;HPM_P1;HPM_P2
2021/03/01 07:02:51;;;;;;;5.67;4.50;;;;;;;0.62;83.89;100720.39;124405;1108;23043;-73
2021/03/01 07:05:20;;;;;;;6.83;5.20;;;;;;;0.65;84.46;100717.39;128324;1107;22902;-72
2021/03/01 07:07:47;;;;;;;6.63;4.97;;;;;;;0.64;83.52;100727.27;128237;1109;22863;-73
2021/03/01 07:10:14;;;;;;;8.30;4.73;;;;;;;0.67;84.18;100724.27;128362;1108;23507;-74
2021/03/01 07:12:42;;;;;;;6.65;5.00;;;;;;;0.70;84.04;100723.95;128223;1107;23717;-74
2021/03/01 07:15:11;;;;;;;9.20;5.70;;;;;;;0.72;83.54;100725.63;128372;1109;22966;-68
2021/03/01 07:17:41;;;;;;;7.83;5.67;;;;;;;0.74;84.51;100727.12;128343;1107;22981;-71
2021/03/01 07:20:10;;;;;;;11.33;7.20;;;;;;;0.77;83.66;100728.63;128364;1108;22979;-71
2021/03/01 07:22:41;;;;;;;8.55;5.80;;;;;;;0.79;84.29;100734.68;128279;1108;23652;-73
2021/03/01 07:25:17;;;;;;;8.60;6.20;;;;;;;0.81;83.71;100738.87;128339;1108;22839;-74
2021/03/01 07:27:44;;;;;;;8.90;6.40;;;;;;;0.83;83.53;100734.19;128234;1108;22988;-74
2021/03/01 07:30:12;;;;;;;9.80;5.90;;;;;;;0.84;83.80;100735.87;128280;1108;24248;-74
2021/03/01 07:32:39;;;;;;;9.30;5.85;;;;;;;0.85;84.46;100729.50;128217;1108;22890;-75
2021/03/01 07:35:08;;;;;;;10.53;6.77;;;;;;;0.85;83.25;100729.50;128345;1108;22943;-70
2021/03/01 07:37:36;;;;;;;7.60;5.00;;;;;;;0.90;84.49;100740.56;128282;1108;22854;-70
2021/03/01 07:40:06;;;;;;;5.85;4.45;;;;;;;0.96;84.57;100736.38;128368;1108;22840;-70
2021/03/01 07:42:34;;;;;;;7.80;5.53;;;;;;;1.00;83.21;100741.27;128325;1107;23033;-69
2021/03/01 07:45:02;;;;;;;9.60;6.15;;;;;;;1.04;83.96;100736.38;128298;1108;22871;-69
2021/03/01 07:47:30;;;;;;;9.70;6.27;;;;;;;1.08;84.02;100742.26;128338;1109;22869;-70
2021/03/01 07:49:57;;;;;;;8.63;5.57;;;;;;;1.11;82.96;100752.67;128274;1108;22980;-70
2021/03/01 07:52:27;;;;;;;8.90;5.45;;;;;;;1.15;83.70;100744.12;128292;1108;22813;-69
2021/03/01 07:54:58;;;;;;;7.00;5.30;;;;;;;1.18;82.86;100742.92;128198;1108;22986;-70
2021/03/01 07:57:29;;;;;;;9.00;5.90;;;;;;;1.19;82.27;100745.45;128329;1108;22949;-77
2021/03/01 07:59:59;;;;;;;8.00;5.15;;;;;;;1.22;82.90;100745.12;128231;1108;22886;-75
2021/03/01 08:02:32;;;;;;;7.57;5.80;;;;;;;1.23;83.01;100749.48;128344;1107;22932;-76
2021/03/01 08:05:18;;;;;;;8.60;5.95;;;;;;;1.23;81.85;100757.53;128215;1107;22889;-77
2021/03/01 08:07:45;;;;;;;11.80;5.70;;;;;;;1.22;81.43;100765.75;128310;1109;22894;-75
2021/03/01 08:10:28;;;;;;;6.50;4.80;;;;;;;1.15;82.57;100765.59;126476;1108;23090;-77
2021/03/01 08:13:04;;;;;;;6.40;4.50;;;;;;;1.14;82.26;100763.08;124630;1108;23030;-78
2021/03/01 08:15:33;;;;;;;;;;;;;;;1.11;82.12;100766.09;126166;1109;23135;-77
2021/03/01 08:18:01;;;;;;;6.53;4.85;;;;;;;1.11;82.13;100766.09;124661;1108;23125;-77
2021/03/01 08:20:34;;;;;;;7.10;4.55;;;;;;;1.11;82.40;100779.50;125793;1108;26067;-77
2021/03/01 08:23:08;;;;;;;8.83;4.80;;;;;;;1.11;81.42;100788.40;126493;1108;23048;-79
2021/03/01 08:25:45;;;;;;;6.95;4.70;;;;;;;1.12;81.49;100784.71;125649;1108;23078;-78
2021/03/01 08:28:24;;;;;;;6.80;4.73;;;;;;;1.10;81.44;100786.72;127817;1109;23267;-77
2021/03/01 08:30:58;;;;;;;5.30;4.30;;;;;;;1.12;81.38;100791.92;127789;1109;23812;-77
2021/03/01 08:33:26;;;;;;;7.00;4.57;;;;;;;1.08;81.60;100785.20;128014;1108;23162;-77
2021/03/01 08:36:14;;;;;;;7.10;5.20;;;;;;;1.09;82.26;100779.67;127481;1106;24545;-77
2021/03/01 08:38:43;;;;;;;10.70;5.70;;;;;;;1.11;81.97;100792.92;124709;1109;23177;-77
2021/03/01 08:41:11;;;;;;;9.75;5.65;;;;;;;1.15;81.66;100794.28;124711;1107;23024;-78
2021/03/01 08:43:39;;;;;;;6.97;5.07;;;;;;;1.19;82.65;100787.55;128318;1109;23069;-78
2021/03/01 08:46:15;;;;;;;9.00;5.23;;;;;;;1.25;82.54;100792.27;128248;1109;23017;-78
2021/03/01 08:48:46;;;;;;;10.50;6.60;;;;;;;1.28;82.29;100798.16;128338;1108;23005;-79
2021/03/01 08:51:13;;;;;;;11.37;6.30;;;;;;;1.33;81.57;100794.95;128300;1108;23501;-79
2021/03/01 08:53:41;;;;;;;13.10;6.40;;;;;;;1.39;82.02;100800.50;128361;1108;22933;-79
2021/03/01 08:56:23;;;;;;;10.57;6.97;;;;;;;1.42;81.25;100802.02;128267;1108;22949;-79
2021/03/01 08:58:51;;;;;;;9.85;4.90;;;;;;;1.45;80.87;100808.88;128323;1109;22844;-79
2021/03/01 09:01:18;;;;;;;8.30;5.20;;;;;;;1.49;81.23;100810.23;128288;1108;22899;-79
2021/03/01 09:03:46;;;;;;;7.35;5.50;;;;;;;1.51;80.72;100814.42;128382;1108;22991;-79
2021/03/01 09:06:38;;;;;;;14.65;7.50;;;;;;;1.51;80.41;100822.48;128287;1108;22971;-79
2021/03/01 09:09:08;;;;;;;9.80;5.25;;;;;;;1.52;80.52;100823.33;128365;1109;22924;-79
2021/03/01 09:11:35;;;;;;;6.35;4.35;;;;;;;1.52;80.36;100821.48;128311;1109;22903;-78
2021/03/01 09:14:04;;;;;;;6.95;5.30;;;;;;;1.54;81.12;100821.31;128272;1109;24990;-78
2021/03/01 09:16:33;;;;;;;8.60;5.55;;;;;;;1.56;80.78;100817.46;128207;1109;23080;-79
2021/03/01 09:19:05;;;;;;;6.40;4.35;;;;;;;1.64;80.82;100838.09;128325;1109;23888;-78
2021/03/01 09:21:37;;;;;;;5.63;4.47;;;;;;;1.68;81.03;100831.39;128275;1109;22906;-78
2021/03/01 09:24:05;;;;;;;10.27;6.37;;;;;;;1.69;79.79;100844.66;128352;1107;23767;-79
2021/03/01 09:26:33;;;;;;;8.17;5.63;;;;;;;1.69;80.62;100841.13;128267;1109;22879;-77
2021/03/01 09:29:11;;;;;;;12.80;6.80;;;;;;;1.69;80.78;100847.34;128364;1108;22902;-78
2021/03/01 09:31:38;;;;;;;11.57;7.62;;;;;;;1.71;80.54;100845.33;128344;1109;23116;-78
2021/03/01 09:34:06;;;;;;;9.90;6.40;;;;;;;1.73;79.81;100845.97;128190;1111;22869;-79
2021/03/01 09:36:34;;;;;;;9.50;5.45;;;;;;;1.76;79.38;100858.23;128407;1109;22874;-79
2021/03/01 09:39:04;;;;;;;10.70;7.00;;;;;;;1.76;80.00;100856.39;128229;1110;22879;-78
2021/03/01 09:41:46;;;;;;;11.05;6.55;;;;;;;1.76;79.39;100858.23;126346;1109;25078;-79
2021/03/01 09:44:30;;;;;;;12.40;6.90;;;;;;;1.79;79.72;100857.91;126816;1108;23086;-78
2021/03/01 09:46:57;;;;;;;9.17;6.37;;;;;;;1.82;79.83;100868.33;128310;1108;24375;-78
2021/03/01 09:49:26;;;;;;;13.20;7.55;;;;;;;1.81;79.99;100857.74;127214;1109;23007;-78
2021/03/01 09:51:53;;;;;;;14.20;7.17;;;;;;;1.81;79.50;100861.27;125553;1109;23043;-77
2021/03/01 09:54:24;;;;;;;7.65;5.80;;;;;;;1.85;79.62;100861.78;124683;1108;24674;-78
2021/03/01 09:56:55;;;;;;;11.10;7.30;;;;;;;1.90;79.45;100868.31;124623;1109;23048;-77
2021/03/01 09:59:36;;;;;;;10.30;7.00;;;;;;;1.93;79.23;100861.77;124615;1108;23218;-77
2021/03/01 10:02:25;;;;;;;6.87;4.83;;;;;;;1.98;78.70;100854.04;128331;1108;22860;-76
2021/03/01 10:05:11;;;;;;;8.10;5.60;;;;;;;2.00;79.13;100860.09;128262;1108;22988;-77
2021/03/01 10:07:38;;;;;;;34.93;19.87;;;;;;;1.99;79.17;100864.63;128328;1108;23080;-77
2021/03/01 10:10:15;;;;;;;12.73;8.13;;;;;;;1.99;78.63;100851.19;128266;1108;23013;-78
2021/03/01 10:12:46;;;;;;;26.43;14.20;;;;;;;1.97;78.30;100850.52;128371;1109;22909;-78
2021/03/01 10:15:20;;;;;;;16.73;8.03;;;;;;;2.00;77.83;100857.41;128342;1108;24069;-78
2021/03/01 10:18:03;;;;;;;29.90;12.10;;;;;;;1.94;77.97;100850.84;128309;1108;22859;-78
2021/03/01 10:20:31;;;;;;;41.97;17.43;;;;;;;1.91;77.85;100848.48;128264;1108;23436;-78
2021/03/01 10:23:05;;;;;;;116.37;42.43;;;;;;;1.92;78.85;100849.33;128274;1108;23680;-79
2021/03/01 10:25:40;;;;;;;34.70;14.10;;;;;;;1.99;78.92;100845.81;128218;1108;23588;-78
2021/03/01 10:28:20;;;;;;;19.97;9.10;;;;;;;2.02;78.41;100840.07;128355;1107;23004;-79
2021/03/01 10:30:59;;;;;;;13.83;7.73;;;;;;;2.10;78.30;100836.55;128244;1108;22972;-78
2021/03/01 10:33:27;;;;;;;16.75;8.10;;;;;;;2.13;77.79;100839.74;128393;1108;22830;-79
2021/03/01 10:36:08;;;;;;;22.43;11.13;;;;;;;2.19;78.37;100840.05;128284;1107;22847;-78
2021/03/01 10:38:51;;;;;;;12.13;6.47;;;;;;;2.24;77.35;100827.77;128331;1109;22922;-78
2021/03/01 10:41:20;;;;;;;12.70;7.45;;;;;;;2.27;77.55;100832.81;128284;1108;22938;-78
2021/03/01 10:43:58;;;;;;;12.07;6.77;;;;;;;2.29;76.57;100841.55;128384;1108;22944;-78
2021/03/01 10:46:32;;;;;;;;;;;;;;;2.36;76.96;100837.15;128270;1108;22972;-78
2021/03/01 10:49:00;;;;;;;9.13;5.73;;;;;;;2.45;77.55;100844.17;128312;1108;21422;-78
2021/03/01 10:51:27;;;;;;;10.63;6.40;;;;;;;2.51;76.63;100844.50;128299;1108;23638;-78
2021/03/01 10:53:55;;;;;;;15.67;6.30;;;;;;;2.57;76.41;100851.89;128351;1109;22910;-78
2021/03/01 10:56:22;;;;;;;7.33;5.50;;;;;;;2.57;75.71;100850.05;128355;1108;23486;-77
2021/03/01 10:58:50;;;;;;;;;;;;;;;2.60;75.82;100851.55;128405;1108;22830;-78
2021/03/01 11:01:17;;;;;;;9.30;5.47;;;;;;;2.64;76.44;100850.17;128285;1109;21427;-78
2021/03/01 11:03:45;;;;;;;9.05;5.80;;;;;;;2.68;76.04;100860.42;128331;1108;22858;-78
2021/03/01 11:06:13;;;;;;;11.70;6.97;;;;;;;2.68;76.42;100855.03;125188;1108;23083;-76
2021/03/01 11:08:40;;;;;;;9.13;6.70;;;;;;;2.71;75.85;100860.08;125176;1108;23166;-80
2021/03/01 11:11:07;;;;;;;8.47;5.73;;;;;;;2.70;75.32;100852.17;125667;1109;23993;-78
2021/03/01 11:13:34;;;;;;;7.65;5.70;;;;;;;2.69;75.58;100859.41;125636;1109;23638;-77
2021/03/01 11:16:01;;;;;;;9.65;5.20;;;;;;;2.69;75.69;100853.19;125792;1109;26459;-78
2021/03/01 11:18:29;;;;;;;9.87;6.13;;;;;;;2.65;75.05;100851.84;125744;1109;24308;-77
2021/03/01 11:20:56;;;;;;;11.30;6.13;;;;;;;2.63;75.64;100854.70;124423;1109;23086;-77
2021/03/01 11:23:23;;;;;;;8.00;6.00;;;;;;;2.63;76.14;100856.56;126902;1109;23107;-77
2021/03/01 11:25:50;;;;;;;6.90;4.70;;;;;;;2.62;75.52;100850.34;128268;1108;22851;-77
2021/03/01 11:28:17;;;;;;;;;;;;;;;2.57;74.93;100854.58;128313;1105;22890;-78
2021/03/01 11:30:44;;;;;;;11.73;6.80;;;;;;;2.47;75.34;100858.29;127829;1108;21575;-79
2021/03/01 11:33:12;;;;;;;9.47;6.03;;;;;;;2.41;75.77;100855.47;124718;1108;23053;-78
2021/03/01 11:35:39;;;;;;;8.40;5.87;;;;;;;2.42;76.06;100855.30;124749;1108;23400;-77
2021/03/01 11:38:07;;;;;;;7.67;5.00;;;;;;;2.44;75.62;100853.28;124725;1108;23262;-78
2021/03/01 11:40:34;;;;;;;6.20;4.45;;;;;;;2.47;76.08;100858.29;128298;1108;22931;-78
2021/03/01 11:43:02;;;;;;;7.60;4.10;;;;;;;2.53;75.60;100864.00;128244;1108;22862;-78
2021/03/01 11:45:30;;;;;;;6.83;5.20;;;;;;;2.56;75.94;100861.81;128362;1109;23014;-78
2021/03/01 11:47:59;;;;;;;8.87;6.00;;;;;;;2.59;75.32;100857.94;128266;1108;22890;-78
2021/03/01 11:50:28;;;;;;;8.95;6.05;;;;;;;2.60;75.68;100859.63;128335;1108;23403;-78
2021/03/01 11:52:55;;;;;;;9.93;6.77;;;;;;;2.58;75.60;100862.48;125295;1109;23413;-78
2021/03/01 11:55:22;;;;;;;7.05;5.30;;;;;;;2.60;76.10;100860.43;126461;1108;23037;-78
2021/03/01 11:57:49;;;;;;;8.70;5.35;;;;;;;2.59;75.75;100855.25;128245;1109;22873;-79
2021/03/01 12:02:23;;;;;;;8.77;5.87;;;;;;;2.57;75.92;100862.66;124410;1111;23055;-78
2021/03/01 12:04:51;;;;;;;8.50;5.95;;;;;;;2.56;75.64;100861.81;124216;1112;23111;-78
2021/03/01 12:07:18;;;;;;;10.40;6.53;;;;;;;2.54;76.05;100855.77;128293;1111;23120;-71
2021/03/01 12:09:45;;;;;;;9.90;6.03;;;;;;;2.55;75.85;100862.82;128233;1111;22911;-70
2021/03/01 12:12:13;;;;;;;9.70;6.67;;;;;;;2.54;75.92;100871.06;128300;1111;22853;-71
2021/03/01 12:14:41;;;;;;;8.63;5.77;;;;;;;2.46;76.15;100867.37;128142;1111;22919;-71
2021/03/01 12:17:08;;;;;;;7.20;5.20;;;;;;;2.31;76.54;100868.28;128307;1110;22864;-70
2021/03/01 12:19:39;;;;;;;8.20;5.50;;;;;;;2.13;77.78;100874.69;128239;1112;23026;-70
2021/03/01 12:22:07;;;;;;;13.23;7.47;;;;;;;1.95;78.24;100876.72;128271;1111;22896;-70
2021/03/01 12:24:34;;;;;;;9.70;6.30;;;;;;;1.82;79.20;100878.23;128252;1111;23125;-71
2021/03/01 12:27:02;;;;;;;11.00;7.00;;;;;;;1.74;79.38;100876.37;128282;1112;22847;-71
2021/03/01 12:29:30;;;;;;;15.20;7.90;;;;;;;1.67;80.14;100875.38;128228;1111;22843;-71
2021/03/01 12:31:57;;;;;;;14.80;8.93;;;;;;;1.60;80.14;100885.09;128345;1112;22908;-70
2021/03/01 12:34:25;;;;;;;21.10;10.20;;;;;;;1.56;80.46;100883.77;128208;1111;22893;-71
2021/03/01 12:36:52;;;;;;;19.93;9.90;;;;;;;1.53;80.62;100881.41;128319;1111;23037;-70
2021/03/01 12:39:34;;;;;;;25.03;11.20;;;;;;;1.56;81.82;100878.39;124445;1112;23261;-79
2021/03/01 12:42:02;;;;;;;26.20;10.30;;;;;;;1.61;80.86;100890.30;128244;1111;23437;-79
2021/03/01 12:44:29;;;;;;;26.83;14.23;;;;;;;1.68;82.14;100885.95;128261;1110;22851;-78
2021/03/01 12:46:57;;;;;;;24.00;12.17;;;;;;;1.70;81.18;100883.95;128296;1111;22901;-78
2021/03/01 12:49:24;;;;;;;19.53;12.33;;;;;;;1.69;81.21;100889.48;128299;1112;23061;-78
2021/03/01 12:51:52;;;;;;;18.23;11.37;;;;;;;1.68;81.47;100885.95;128280;1111;23034;-78
2021/03/01 12:54:19;;;;;;;11.23;7.57;;;;;;;1.72;81.58;100897.22;128333;1111;22841;-78
2021/03/01 12:56:47;;;;;;;7.50;5.67;;;;;;;1.75;82.17;100903.07;128252;1111;22953;-78
2021/03/01 12:59:14;;;;;;;6.50;4.93;;;;;;;1.80;81.76;100901.74;128320;1110;24066;-78
2021/03/01 13:01:41;;;;;;;8.67;5.27;;;;;;;1.83;81.62;100883.44;128266;1111;22944;-78
2021/03/01 13:04:12;;;;;;;7.40;5.20;;;;;;;1.82;81.55;100888.98;125804;1111;23045;-77
2021/03/01 13:06:40;;;;;;;6.53;4.20;;;;;;;1.82;80.83;100884.45;128171;1112;22941;-78
2021/03/01 13:09:08;;;;;;;7.00;4.47;;;;;;;1.84;80.81;100882.44;128305;1111;22841;-78
2021/03/01 13:11:35;;;;;;;12.53;5.80;;;;;;;1.87;81.07;100892.02;128246;1112;22953;-78
2021/03/01 13:14:04;;;;;;;11.85;6.45;;;;;;;1.88;81.53;100894.50;128330;1111;23653;-78
2021/03/01 13:16:31;;;;;;;11.23;6.80;;;;;;;1.92;81.18;100895.02;128258;1111;22840;-78
2021/03/01 13:18:59;;;;;;;13.00;7.40;;;;;;;1.92;80.43;100898.55;128333;1111;23004;-78
2021/03/01 13:21:26;;;;;;;12.03;6.97;;;;;;;1.92;81.03;100895.86;128235;1111;22907;-79
2021/03/01 13:23:57;;;;;;;12.25;8.30;;;;;;;1.95;80.23;100894.69;125154;1110;27406;-78
2021/03/01 13:26:25;;;;;;;14.00;9.60;;;;;;;1.98;80.81;100894.36;124414;1111;23135;-78
2021/03/01 13:28:53;;;;;;;10.70;7.05;;;;;;;2.02;80.60;100901.89;128339;1110;22874;-78
2021/03/01 13:31:20;;;;;;;16.07;11.00;;;;;;;2.05;80.54;100903.41;128223;1111;22894;-78
2021/03/01 13:33:48;;;;;;;21.95;14.15;;;;;;;2.04;80.56;100907.10;125636;1111;23062;-78
2021/03/01 13:36:16;;;;;;;11.05;6.90;;;;;;;2.02;80.13;100903.77;124159;1112;23180;-79
2021/03/01 13:38:43;;;;;;;8.45;5.65;;;;;;;2.02;80.90;100899.20;128271;1112;22882;-78
2021/03/01 13:41:12;;;;;;;10.23;6.47;;;;;;;2.03;79.64;100906.27;126468;1111;23054;-78
2021/03/01 13:43:39;;;;;;;8.30;5.95;;;;;;;2.01;79.64;100899.41;124235;1110;23081;-78
2021/03/01 13:46:08;;;;;;;9.25;6.75;;;;;;;2.01;80.37;100899.41;126751;1111;23062;-78
2021/03/01 13:48:35;;;;;;;10.10;6.50;;;;;;;2.01;79.75;100892.18;128253;1112;22908;-78
2021/03/01 13:51:03;;;;;;;13.67;8.23;;;;;;;2.02;79.94;100884.95;128278;1111;22911;-79
2021/03/01 13:53:31;;;;;;;10.25;7.05;;;;;;;2.05;80.08;100884.59;125450;1112;24664;-79
2021/03/01 13:55:59;;;;;;;11.63;6.67;;;;;;;2.08;79.90;100884.27;124107;1112;27780;-78
2021/03/01 13:58:26;;;;;;;9.80;5.87;;;;;;;2.12;80.13;100885.61;128244;1111;22889;-79
2021/03/01 14:00:54;;;;;;;8.80;5.50;;;;;;;2.16;79.93;100889.65;128261;1112;23059;-78
2021/03/01 14:03:22;;;;;;;10.33;6.10;;;;;;;2.19;79.67;100885.75;128289;1111;22911;-78
2021/03/01 14:05:49;;;;;;;14.15;7.15;;;;;;;2.20;79.18;100885.58;128343;1108;22998;-78
2021/03/01 14:08:17;;;;;;;9.70;6.57;;;;;;;2.20;78.87;100893.65;128350;1109;23046;-78
2021/03/01 14:10:45;;;;;;;14.77;8.10;;;;;;;2.23;78.55;100881.72;128365;1109;23403;-78
2021/03/01 14:13:13;;;;;;;13.37;9.13;;;;;;;2.23;79.06;100882.56;128348;1109;24014;-78
2021/03/01 14:15:41;;;;;;;15.90;7.65;;;;;;;2.24;79.35;100886.09;127250;1108;23157;-70
2021/03/01 14:18:10;;;;;;;13.07;7.87;;;;;;;2.21;78.99;100887.27;128287;1108;22997;-70
2021/03/01 14:20:37;;;;;;;13.10;8.27;;;;;;;2.23;78.94;100882.56;128344;1109;22941;-72
2021/03/01 14:23:06;;;;;;;13.73;8.43;;;;;;;2.24;79.37;100881.55;128375;1108;22857;-70
2021/03/01 14:25:33;;;;;;;18.23;10.67;;;;;;;2.26;78.25;100878.70;126835;1108;23591;-69
2021/03/01 14:28:00;;;;;;;21.47;14.30;;;;;;;2.24;78.90;100873.48;124887;1109;23430;-70
2021/03/01 14:30:32;;;;;;;18.75;11.50;;;;;;;2.23;78.59;100879.03;125836;1108;23059;-70
2021/03/01 14:33:16;;;;;;;19.90;13.15;;;;;;;2.23;79.22;100871.80;125833;1109;23059;-70
2021/03/01 14:35:44;;;;;;;26.75;15.60;;;;;;;2.26;79.10;100867.94;128278;1109;23087;-71
2021/03/01 14:38:14;;;;;;;18.83;11.50;;;;;;;2.32;79.31;100872.61;128375;1108;23006;-71
2021/03/01 14:40:42;;;;;;;18.85;9.90;;;;;;;2.35;79.60;100875.81;128220;1108;23036;-70
2021/03/01 14:43:30;;;;;;;15.90;9.30;;;;;;;2.42;79.55;100874.13;128318;1109;22833;-71
2021/03/01 14:45:58;;;;;;;14.85;8.70;;;;;;;2.45;79.13;100873.76;128301;1108;22949;-71
2021/03/01 14:48:26;;;;;;;11.40;7.90;;;;;;;2.49;79.57;100874.26;128315;1109;23748;-70
2021/03/01 14:50:54;;;;;;;12.40;7.50;;;;;;;2.52;78.69;100875.77;128221;1109;23768;-71
2021/03/01 14:53:23;;;;;;;16.70;9.80;;;;;;;2.51;79.05;100877.63;128279;1108;22865;-70
2021/03/01 14:55:50;;;;;;;11.60;7.33;;;;;;;2.52;78.50;100881.99;128203;1107;22942;-70
2021/03/01 14:58:17;;;;;;;13.80;7.23;;;;;;;2.54;78.73;100884.52;128365;1108;23031;-70
2021/03/01 15:00:45;;;;;;;19.77;11.27;;;;;;;2.51;78.15;100893.77;128200;1108;22943;-71
2021/03/01 15:03:12;;;;;;;17.35;10.70;;;;;;;2.47;78.27;100892.42;128349;1107;23027;-72
2021/03/01 15:05:52;;;;;;;19.30;10.23;;;;;;;2.46;78.07;100898.80;128292;1108;22856;-71
2021/03/01 15:08:20;;;;;;;8.85;5.65;;;;;;;2.41;78.82;100898.50;128361;1108;23473;-70
2021/03/01 15:10:48;;;;;;;9.67;5.40;;;;;;;2.41;78.63;100899.34;128244;1108;22910;-70
2021/03/01 15:13:26;;;;;;;45.10;16.70;;;;;;;2.42;78.33;100903.71;128340;1108;22862;-71
2021/03/01 15:15:54;;;;;;;28.70;13.80;;;;;;;2.42;78.36;100900.19;128284;1108;22971;-70
2021/03/01 15:18:22;;;;;;;25.10;12.47;;;;;;;2.42;78.55;100910.94;128330;1109;23794;-69
2021/03/01 15:20:50;;;;;;;21.93;12.33;;;;;;;2.40;78.15;100912.95;128242;1109;23109;-70
2021/03/01 15:23:18;;;;;;;23.40;9.30;;;;;;;2.36;77.89;100914.30;128332;1109;22859;-70
2021/03/01 15:25:47;;;;;;;27.55;12.15;;;;;;;2.32;78.77;100923.71;128262;1108;22887;-77
2021/03/01 15:28:16;;;;;;;30.30;12.87;;;;;;;2.31;77.76;100912.11;128381;1108;23705;-78
2021/03/01 15:30:44;;;;;;;33.70;12.97;;;;;;;2.31;78.31;100924.75;126171;1107;23063;-77
2021/03/01 15:33:13;;;;;;;34.55;13.45;;;;;;;2.30;77.47;100928.45;128307;1109;23065;-77
2021/03/01 15:35:47;;;;;;;32.85;11.55;;;;;;;2.24;78.15;100926.42;128236;1109;22791;-77
2021/03/01 15:38:15;;;;;;;27.05;10.05;;;;;;;2.26;78.13;100938.70;128329;1108;23064;-78
2021/03/01 15:40:43;;;;;;;44.63;12.63;;;;;;;2.25;78.40;100942.39;128377;1107;22858;-76
2021/03/01 15:43:11;;;;;;;23.67;11.33;;;;;;;2.23;77.73;100948.94;128339;1109;23724;-76
2021/03/01 15:45:39;;;;;;;34.07;13.27;;;;;;;2.19;78.51;100951.13;128308;1108;24330;-76
2021/03/01 15:48:08;;;;;;;26.10;11.60;;;;;;;2.18;78.80;100946.75;128289;1108;24064;-75
2021/03/01 15:50:36;;;;;;;41.03;13.53;;;;;;;2.18;78.78;100946.75;128337;1109;22918;-77
2021/03/01 15:53:04;;;;;;;27.57;10.97;;;;;;;2.17;78.35;100949.61;128318;1108;22995;-76
2021/03/01 15:55:32;;;;;;;26.57;10.77;;;;;;;2.11;78.35;100949.29;128329;1108;22910;-78
2021/03/01 15:58:00;;;;;;;22.40;10.30;;;;;;;2.06;78.09;100948.94;128259;1109;22907;-77
2021/03/01 16:00:30;;;;;;;27.97;11.60;;;;;;;2.09;78.29;100953.15;128304;1108;22937;-77
2021/03/01 16:02:57;;;;;;;47.03;13.70;;;;;;;2.11;78.84;100945.76;128192;1109;23498;-74
2021/03/01 16:05:25;;;;;;;34.23;13.33;;;;;;;2.14;78.32;100948.12;127726;1108;23111;-76
2021/03/01 16:07:53;;;;;;;39.07;14.03;;;;;;;2.17;79.48;100954.98;125174;1108;25966;-75
2021/03/01 16:10:22;;;;;;;41.30;14.57;;;;;;;2.21;78.91;100953.64;126215;1109;23271;-75
2021/03/01 16:12:50;;;;;;;43.17;16.37;;;;;;;2.22;79.29;100940.03;128212;1109;23097;-75
2021/03/01 16:15:19;;;;;;;33.07;16.33;;;;;;;2.25;79.36;100952.30;128323;1108;24024;-75
2021/03/01 16:17:48;;;;;;;29.13;14.60;;;;;;;2.27;79.13;100948.45;128193;1110;25525;-76
2021/03/01 16:20:17;;;;;;;24.40;14.50;;;;;;;2.28;78.83;100941.22;128273;1109;22841;-75
2021/03/01 16:22:45;;;;;;;26.63;14.10;;;;;;;2.29;78.31;100948.28;128288;1107;23004;-74
2021/03/01 16:25:14;;;;;;;25.97;14.63;;;;;;;2.29;78.81;100949.13;128342;1108;22891;-76
2021/03/01 16:27:42;;;;;;;53.23;24.37;;;;;;;2.28;79.04;100947.44;128293;1108;23495;-76
2021/03/01 16:30:15;;;;;;;72.45;27.95;;;;;;;2.29;78.65;100948.28;128189;1108;22870;-75
2021/03/01 16:32:42;;;;;;;80.47;33.70;;;;;;;2.29;79.04;100949.13;128366;1108;22933;-76
2021/03/01 16:35:11;;;;;;;83.30;34.10;;;;;;;2.30;78.48;100953.48;127404;1108;23110;-76
2021/03/01 16:37:39;;;;;;;59.50;25.05;;;;;;;2.32;78.95;100954.14;124597;1108;24652;-76
2021/03/01 16:40:08;;;;;;;41.60;20.25;;;;;;;2.32;79.24;100956.83;124667;1109;23238;-77
2021/03/01 16:42:38;;;;;;;27.67;14.33;;;;;;;2.31;78.68;100955.14;124309;1109;26016;-76
2021/03/01 16:45:09;;;;;;;24.05;13.50;;;;;;;2.30;79.34;100960.72;128244;1109;22874;-76
2021/03/01 16:47:37;;;;;;;23.33;12.80;;;;;;;2.30;78.54;100966.94;128340;1108;22899;-76
2021/03/01 16:50:06;;;;;;;25.40;13.13;;;;;;;2.28;79.18;100966.27;128284;1108;22975;-70
2021/03/01 16:52:33;;;;;;;22.43;13.50;;;;;;;2.27;79.09;100969.95;128323;1108;23567;-77
2021/03/01 16:55:01;;;;;;;22.27;13.37;;;;;;;2.25;78.44;100966.59;128193;1109;22917;-77
2021/03/01 16:57:29;;;;;;;22.43;13.07;;;;;;;2.23;78.56;100970.45;128335;1108;22902;-78
2021/03/01 16:59:57;;;;;;;22.23;12.03;;;;;;;2.19;79.18;100971.79;128243;1108;22852;-77
2021/03/01 17:02:25;;;;;;;20.70;12.60;;;;;;;2.17;79.13;100977.33;128331;1109;23203;-78
2021/03/01 17:04:53;;;;;;;25.53;14.23;;;;;;;2.15;78.46;100975.84;126189;1108;23083;-77
2021/03/01 17:07:36;;;;;;;25.23;13.43;;;;;;;2.13;79.08;100976.02;125085;1108;26555;-76
2021/03/01 17:10:10;;;;;;;23.77;11.87;;;;;;;2.14;79.03;100985.76;128225;1108;22928;-77
2021/03/01 17:13:06;;;;;;;25.20;12.17;;;;;;;2.16;78.97;100986.44;128229;1109;22949;-78
2021/03/01 17:15:34;;;;;;;21.63;12.07;;;;;;;2.19;79.48;100982.55;128176;1110;22909;-77
2021/03/01 17:18:02;;;;;;;25.00;14.80;;;;;;;2.20;79.19;100979.69;128318;1108;22939;-77
2021/03/01 17:20:30;;;;;;;26.67;15.77;;;;;;;2.22;79.31;100974.98;128194;1108;23008;-77
2021/03/01 17:23:04;;;;;;;24.50;14.57;;;;;;;2.22;79.26;100980.37;128302;1108;22909;-77
2021/03/01 17:25:33;;;;;;;23.35;13.75;;;;;;;2.23;79.01;100978.52;128278;1108;22842;-78
2021/03/01 17:28:01;;;;;;;24.35;13.80;;;;;;;2.21;79.62;100984.06;128300;1109;24638;-77
2021/03/01 17:30:28;;;;;;;23.17;14.03;;;;;;;2.19;79.85;100978.01;128245;1108;22912;-77
2021/03/01 17:33:01;;;;;;;24.05;12.60;;;;;;;2.19;78.88;100986.08;128333;1107;23457;-77
2021/03/01 17:35:29;;;;;;;17.75;10.50;;;;;;;2.17;79.42;100980.02;128303;1107;22907;-69
2021/03/01 17:37:57;;;;;;;17.90;9.90;;;;;;;2.17;79.37;100976.48;128268;1109;22834;-71
2021/03/01 17:40:24;;;;;;;16.07;9.90;;;;;;;2.18;79.53;100975.48;128316;1108;22997;-70
2021/03/01 17:42:52;;;;;;;26.93;14.23;;;;;;;2.19;79.97;100966.41;128266;1108;23084;-70
2021/03/01 17:45:20;;;;;;;73.05;28.65;;;;;;;2.22;79.67;100958.86;125058;1109;23183;-69
2021/03/01 17:47:57;;;;;;;42.10;21.23;;;;;;;2.26;79.93;100970.13;128225;1108;22926;-70
2021/03/01 17:50:27;;;;;;;;;;;;;;;2.26;79.34;100970.13;128354;1108;23641;-70
2021/03/01 17:53:03;;;;;;;30.70;16.40;;;;;;;2.26;79.93;100976.34;128229;1108;22006;-70
2021/03/01 17:55:50;;;;;;;28.30;14.97;;;;;;;2.25;79.77;100971.97;128315;1108;23745;-70
2021/03/01 17:58:37;;;;;;;29.07;15.30;;;;;;;2.23;79.02;100968.61;128239;1109;23022;-70
2021/03/01 18:01:06;;;;;;;30.17;15.00;;;;;;;2.24;79.63;100966.76;128300;1109;23870;-70
2021/03/01 18:03:35;;;;;;;27.50;16.03;;;;;;;2.22;79.54;100972.30;128241;1109;23650;-69
2021/03/01 18:06:04;;;;;;;32.37;14.43;;;;;;;2.20;79.21;100963.56;127054;1108;24406;-77
2021/03/01 18:08:36;;;;;;;49.40;24.23;;;;;;;2.21;78.97;100967.09;128272;1109;22863;-77
2021/03/01 18:11:05;;;;;;;29.87;15.60;;;;;;;2.20;79.26;100970.78;129205;1105;23431;-77
2021/03/01 18:13:33;;;;;;;31.95;17.00;;;;;;;2.19;79.38;100966.41;128421;1106;22948;-78
2021/03/01 18:16:01;;;;;;;34.40;17.65;;;;;;;2.19;79.25;100969.94;129183;1105;22970;-77
2021/03/01 18:18:29;;;;;;;47.27;22.20;;;;;;;2.19;79.74;100969.94;129107;1105;27048;-77
2021/03/01 18:20:58;;;;;;;44.73;23.30;;;;;;;2.20;79.07;100971.63;129205;1105;22831;-77
2021/03/01 18:23:27;;;;;;;43.53;23.80;;;;;;;2.22;78.73;100972.30;129160;1104;24119;-77
2021/03/01 18:25:55;;;;;;;44.53;21.23;;;;;;;2.22;78.99;100976.84;129186;1105;22888;-77
2021/03/01 18:28:23;;;;;;;42.80;19.00;;;;;;;2.22;79.31;100969.61;129283;1104;23711;-77
2021/03/01 18:30:55;;;;;;;38.20;18.30;;;;;;;2.21;79.35;100962.55;124826;1106;23109;-74
2021/03/01 18:33:49;;;;;;;49.10;22.80;;;;;;;2.19;78.93;100964.56;129150;1105;22879;-77
2021/03/01 18:36:28;;;;;;;50.40;23.50;;;;;;;2.18;79.59;100962.04;128615;1105;22967;-76